createdAt,value
2023-02-27T00:00:30.770Z,16.33
2023-02-27T00:04:54.720Z,16.05
2023-02-27T00:09:16.507Z,15.13
2023-02-27T00:13:39.007Z,14.35
2023-02-27T00:18:00.872Z,13.95
2023-02-27T00:22:22.667Z,16.80
2023-02-27T00:26:44.605Z,13.80
2023-02-27T00:31:07.014Z,17.95
2023-02-27T00:35:29.336Z,20.75
2023-02-27T00:39:51.751Z,19.05
2023-02-27T00:44:14.070Z,13.13
2023-02-27T00:48:36.408Z,18.30
2023-02-27T00:52:58.584Z,12.88
2023-02-27T00:57:22.075Z,14.73
2023-02-27T01:01:45.252Z,16.67
2023-02-27T01:06:08.403Z,14.38
2023-02-27T01:10:30.796Z,19.40
2023-02-27T01:14:53.890Z,17.50
2023-02-27T01:19:15.857Z,15.93
2023-02-27T01:23:38.816Z,17.33
2023-02-27T01:28:01.010Z,14.73
2023-02-27T01:32:23.455Z,11.30
2023-02-27T01:36:45.421Z,14.15
2023-02-27T01:41:10.910Z,13.00
2023-02-27T01:45:40.218Z,12.95
2023-02-27T01:50:02.068Z,14.48
2023-02-27T01:54:27.090Z,14.68
2023-02-27T01:58:52.007Z,11.68
2023-02-27T02:03:29.871Z,10.20
2023-02-27T02:07:52.548Z,11.32
2023-02-27T02:12:16.597Z,12.32
2023-02-27T02:17:40.340Z,12.37
2023-02-27T02:22:14.025Z,19.67
2023-02-27T02:27:07.035Z,11.85
2023-02-27T02:32:06.017Z,17.90
2023-02-27T02:36:52.403Z,13.70
2023-02-27T02:41:42.506Z,11.10
2023-02-27T02:46:27.665Z,13.25
2023-02-27T02:51:04.714Z,16.42
2023-02-27T02:55:43.638Z,13.02
2023-02-27T03:00:18.946Z,12.93
2023-02-27T03:04:59.307Z,11.57
2023-02-27T03:09:50.987Z,14.07
2023-02-27T03:14:49.924Z,12.63
2023-02-27T03:19:42.027Z,11.68
2023-02-27T03:24:07.849Z,12.30
2023-02-27T03:28:38.744Z,11.55
2023-02-27T03:33:38.885Z,13.48
2023-02-27T03:38:24.422Z,11.98
2023-02-27T03:42:57.790Z,10.55
2023-02-27T03:47:26.058Z,13.50
2023-02-27T03:51:48.229Z,12.95
2023-02-27T03:56:12.490Z,13.15
2023-02-27T04:00:35.381Z,13.45
2023-02-27T04:04:57.421Z,13.50
2023-02-27T04:10:04.222Z,9.45
2023-02-27T04:14:44.067Z,10.35
2023-02-27T04:20:11.061Z,14.38
2023-02-27T04:24:52.332Z,12.50
2023-02-27T04:29:39.902Z,12.57
2023-02-27T04:34:54.125Z,13.57
2023-02-27T04:39:27.734Z,12.88
2023-02-27T04:43:52.087Z,12.82
2023-02-27T04:48:39.014Z,9.20
2023-02-27T04:53:20.396Z,10.10
2023-02-27T04:57:55.100Z,11.15
2023-02-27T05:02:25.383Z,13.52
2023-02-27T05:06:49.808Z,11.32
2023-02-27T05:11:34.659Z,17.58
2023-02-27T05:16:29.109Z,14.57
2023-02-27T05:21:18.355Z,12.43
2023-02-27T05:26:01.066Z,16.05
2023-02-27T05:30:41.334Z,12.30
2023-02-27T05:35:19.388Z,12.57
2023-02-27T05:39:44.203Z,12.45
2023-02-27T05:44:36.103Z,11.48
2023-02-27T05:49:11.902Z,8.68
2023-02-27T05:53:40.403Z,12.38
2023-02-27T05:58:31.744Z,12.35
2023-02-27T06:02:54.440Z,8.65
2023-02-27T06:07:16.667Z,10.82
2023-02-27T06:11:39.053Z,11.27
2023-02-27T06:16:00.966Z,10.07
2023-02-27T06:20:23.134Z,14.15
2023-02-27T06:24:44.978Z,16.55
2023-02-27T06:29:07.290Z,13.40
2023-02-27T06:33:29.259Z,13.80
2023-02-27T06:37:51.587Z,15.27
2023-02-27T06:42:13.520Z,14.60
2023-02-27T06:46:35.544Z,14.27
2023-02-27T06:50:58.180Z,16.00
2023-02-27T06:55:22.727Z,16.15
2023-02-27T06:59:45.409Z,27.60
2023-02-27T07:04:07.239Z,13.55
2023-02-27T07:08:29.070Z,9.55
2023-02-27T07:12:51.322Z,9.20
2023-02-27T07:17:13.416Z,8.77
2023-02-27T07:21:35.306Z,10.13
2023-02-27T07:25:57.224Z,11.93
2023-02-27T07:30:19.900Z,9.82
2023-02-27T07:34:41.981Z,16.20
2023-02-27T07:39:05.960Z,17.88
2023-02-27T07:43:28.004Z,17.42
2023-02-27T07:47:50.007Z,16.77
2023-02-27T07:52:12.006Z,13.70
2023-02-27T07:56:33.865Z,15.65
2023-02-27T08:00:56.366Z,11.00
2023-02-27T08:05:18.526Z,10.57
2023-02-27T08:09:40.405Z,9.38
2023-02-27T08:14:03.209Z,10.32
2023-02-27T08:18:25.327Z,8.18
2023-02-27T08:22:47.538Z,14.25
2023-02-27T08:27:09.767Z,11.68
2023-02-27T08:31:31.899Z,9.90
2023-02-27T08:35:55.804Z,8.90
2023-02-27T08:40:18.549Z,9.40
2023-02-27T08:44:40.605Z,11.98
2023-02-27T08:49:02.648Z,11.07
2023-02-27T08:53:25.352Z,11.82
2023-02-27T08:57:47.630Z,7.53
2023-02-27T09:02:11.553Z,9.07
2023-02-27T09:06:35.931Z,11.60
2023-02-27T09:10:58.175Z,8.40
2023-02-27T09:15:20.867Z,7.40
2023-02-27T09:19:42.858Z,9.77
2023-02-27T09:24:18.758Z,9.25
2023-02-27T09:28:42.461Z,8.25
2023-02-27T09:33:04.328Z,8.35
2023-02-27T09:37:26.430Z,8.93
2023-02-27T09:42:09.843Z,7.68
2023-02-27T09:46:32.370Z,9.10
2023-02-27T09:50:54.445Z,8.60
2023-02-27T09:55:22.023Z,8.68
2023-02-27T09:59:59.982Z,6.25
2023-02-27T10:04:41.202Z,7.43
2023-02-27T10:09:56.472Z,6.28
2023-02-27T10:15:00.077Z,8.05
2023-02-27T10:19:32.246Z,7.10
2023-02-27T10:24:29.522Z,7.97
2023-02-27T10:28:51.482Z,9.50
2023-02-27T10:33:37.555Z,6.72
2023-02-27T10:38:29.457Z,10.15
2023-02-27T10:42:55.088Z,9.32
2023-02-27T10:47:17.245Z,11.20
2023-02-27T10:51:39.364Z,8.68
2023-02-27T10:56:07.298Z,8.68
2023-02-27T11:01:07.220Z,11.57
2023-02-27T11:05:35.926Z,10.45
2023-02-27T11:10:23.864Z,8.45
2023-02-27T11:14:55.661Z,13.25
2023-02-27T11:19:37.300Z,7.68
2023-02-27T11:24:03.782Z,9.15
2023-02-27T11:28:31.026Z,11.38
2023-02-27T11:32:56.715Z,11.07
2023-02-27T11:37:28.996Z,9.02
2023-02-27T11:41:51.845Z,11.02
2023-02-27T11:46:46.167Z,8.48
2023-02-27T11:51:24.123Z,12.35
2023-02-27T11:55:48.226Z,9.98
2023-02-27T12:00:21.733Z,14.63
2023-02-27T12:04:49.534Z,11.77
2023-02-27T12:09:58.968Z,11.85
2023-02-27T12:14:38.517Z,8.20
2023-02-27T12:19:29.876Z,8.68
2023-02-27T12:23:57.728Z,9.52
2023-02-27T12:29:02.273Z,12.73
2023-02-27T12:33:59.243Z,8.80
2023-02-27T12:38:23.928Z,11.60
2023-02-27T12:43:16.100Z,7.72
2023-02-27T12:47:59.632Z,12.30
2023-02-27T12:52:46.122Z,7.22
2023-02-27T12:57:32.398Z,6.68
2023-02-27T13:02:13.879Z,7.43
2023-02-27T13:07:01.191Z,5.85
2023-02-27T13:11:35.166Z,8.35
2023-02-27T13:16:34.021Z,5.93
2023-02-27T13:21:25.485Z,7.90
2023-02-27T13:25:51.771Z,9.13
2023-02-27T13:30:52.989Z,7.28
2023-02-27T13:35:19.995Z,4.70
2023-02-27T13:39:47.766Z,5.93
2023-02-27T13:44:21.950Z,6.70
2023-02-27T13:48:46.506Z,3.88
2023-02-27T13:53:18.605Z,6.90
2023-02-27T13:57:40.718Z,7.28
2023-02-27T14:02:11.358Z,3.70
2023-02-27T14:06:42.845Z,3.67
2023-02-27T14:11:25.029Z,6.40
2023-02-27T14:15:55.440Z,4.82
2023-02-27T14:20:18.144Z,4.35
2023-02-27T14:25:02.436Z,5.72
2023-02-27T14:29:31.543Z,5.00
2023-02-27T14:33:56.508Z,5.47
2023-02-27T14:38:20.925Z,3.42
2023-02-27T14:43:02.053Z,7.60
2023-02-27T14:47:33.633Z,6.30
2023-02-27T14:51:57.072Z,8.15
2023-02-27T14:56:19.940Z,9.82
2023-02-27T15:00:50.658Z,5.00
2023-02-27T15:05:23.547Z,10.93
2023-02-27T15:09:49.223Z,6.78
2023-02-27T15:14:22.319Z,6.18
2023-02-27T15:18:55.067Z,5.85
2023-02-27T15:23:26.375Z,7.55
2023-02-27T15:27:48.866Z,4.18
2023-02-27T15:32:31.909Z,7.38
2023-02-27T15:36:56.929Z,6.18
2023-02-27T15:41:21.845Z,6.07
2023-02-27T15:45:44.257Z,9.65
2023-02-27T15:50:24.636Z,8.18
2023-02-27T15:55:02.104Z,5.53
2023-02-27T15:59:25.985Z,9.55
2023-02-27T16:03:53.154Z,8.23
2023-02-27T16:08:20.863Z,12.38
2023-02-27T16:12:44.599Z,30.02
2023-02-27T16:17:27.167Z,8.40
2023-02-27T16:22:15.449Z,9.38
2023-02-27T16:26:37.733Z,9.75
2023-02-27T16:31:00.860Z,7.68
2023-02-27T16:35:25.011Z,8.95
2023-02-27T16:39:47.111Z,12.05
2023-02-27T16:44:08.981Z,9.93
2023-02-27T16:48:31.050Z,13.57
2023-02-27T16:52:52.902Z,9.77
2023-02-27T16:57:14.682Z,7.20
2023-02-27T17:01:37.024Z,12.50
2023-02-27T17:05:59.713Z,9.98
2023-02-27T17:10:24.764Z,11.82
2023-02-27T17:14:46.715Z,12.48
2023-02-27T17:19:08.776Z,10.27
2023-02-27T17:23:31.636Z,13.35
2023-02-27T17:27:58.666Z,11.10
2023-02-27T17:32:20.514Z,8.40
2023-02-27T17:36:43.190Z,11.90
2023-02-27T17:41:10.951Z,15.07
2023-02-27T17:45:33.518Z,8.85
2023-02-27T17:49:57.213Z,11.07
2023-02-27T17:54:19.307Z,13.20
2023-02-27T17:58:45.491Z,10.88
2023-02-27T18:03:07.503Z,11.30
2023-02-27T18:07:29.980Z,8.98
2023-02-27T18:11:52.011Z,11.20
2023-02-27T18:16:15.344Z,9.77
2023-02-27T18:20:37.867Z,11.68
2023-02-27T18:25:01.281Z,14.90
2023-02-27T18:29:23.482Z,13.15
2023-02-27T18:33:45.584Z,13.93
2023-02-27T18:38:07.622Z,13.73
2023-02-27T18:42:30.003Z,15.50
2023-02-27T18:46:52.162Z,13.85
2023-02-27T18:51:16.128Z,10.20
2023-02-27T18:55:38.024Z,15.32
2023-02-27T19:00:00.564Z,14.02
2023-02-27T19:04:22.323Z,11.60
2023-02-27T19:08:44.449Z,11.50
2023-02-27T19:13:09.542Z,14.68
2023-02-27T19:17:31.593Z,12.50
2023-02-27T19:21:53.607Z,15.85
2023-02-27T19:26:15.750Z,10.45
2023-02-27T19:30:39.946Z,13.13
2023-02-27T19:35:02.052Z,10.80
2023-02-27T19:39:24.224Z,12.60
2023-02-27T19:43:47.825Z,11.38
2023-02-27T19:48:12.262Z,12.90
2023-02-27T19:52:38.135Z,12.57
2023-02-27T19:57:00.331Z,11.48
2023-02-27T20:01:26.684Z,14.90
2023-02-27T20:05:49.724Z,11.00
2023-02-27T20:10:12.880Z,12.27
2023-02-27T20:14:35.292Z,9.02
2023-02-27T20:18:58.052Z,14.40
2023-02-27T20:23:20.982Z,12.63
2023-02-27T20:27:43.483Z,14.07
2023-02-27T20:32:05.864Z,14.40
2023-02-27T20:36:28.750Z,13.88
2023-02-27T20:40:51.427Z,11.85
2023-02-27T20:45:13.421Z,12.23
2023-02-27T20:49:36.590Z,8.90
2023-02-27T20:54:00.218Z,11.10
2023-02-27T20:58:22.225Z,10.52
2023-02-27T21:02:44.873Z,9.90
2023-02-27T21:07:07.016Z,11.80
2023-02-27T21:11:31.155Z,11.40
2023-02-27T21:15:53.453Z,10.48
2023-02-27T21:20:15.606Z,9.00
2023-02-27T21:24:38.144Z,11.15
2023-02-27T21:29:24.070Z,12.60
2023-02-27T21:33:46.199Z,13.13
2023-02-27T21:38:08.164Z,9.93
2023-02-27T21:42:33.899Z,11.25
2023-02-27T21:46:56.583Z,12.93
2023-02-27T21:51:33.057Z,13.02
2023-02-27T21:56:09.705Z,14.13
2023-02-27T22:00:32.055Z,11.73
2023-02-27T22:04:53.934Z,11.40
2023-02-27T22:09:16.362Z,12.07
2023-02-27T22:13:38.543Z,13.60
2023-02-27T22:18:00.569Z,10.38
2023-02-27T22:22:22.885Z,12.98
2023-02-27T22:26:45.918Z,12.18
2023-02-27T22:31:23.289Z,13.50
2023-02-27T22:35:45.442Z,14.27
2023-02-27T22:40:08.861Z,14.50
2023-02-27T22:44:30.801Z,14.90
2023-02-27T22:48:58.727Z,16.42
2023-02-27T22:53:20.850Z,14.38
2023-02-27T22:57:42.673Z,15.68
2023-02-27T23:02:06.483Z,15.00
2023-02-27T23:06:35.921Z,14.52
2023-02-27T23:10:58.422Z,15.65
2023-02-27T23:15:20.964Z,14.70
2023-02-27T23:19:44.041Z,13.40
2023-02-27T23:24:09.330Z,14.95
2023-02-27T23:28:33.867Z,12.43
2023-02-27T23:32:57.215Z,14.57
2023-02-27T23:37:19.142Z,15.50
2023-02-27T23:41:41.069Z,13.15
2023-02-27T23:46:11.839Z,15.45
2023-02-27T23:50:39.366Z,13.45
2023-02-27T23:55:01.624Z,14.40
2023-02-27T23:59:23.715Z,14.18
